createdAt,value
2018-06-04T00:00:10.465Z,52.70
2018-06-04T00:02:39.271Z,50.73
2018-06-04T00:05:08.084Z,54.47
2018-06-04T00:07:36.894Z,53.53
2018-06-04T00:10:05.722Z,58.20
2018-06-04T00:12:34.550Z,53.90
2018-06-04T00:15:03.417Z,59.10
2018-06-04T00:17:32.252Z,52.47
2018-06-04T00:20:01.113Z,57.23
2018-06-04T00:22:30.787Z,55.17
2018-06-04T00:24:59.627Z,59.73
2018-06-04T00:27:28.463Z,66.10
2018-06-04T00:29:57.269Z,58.80
2018-06-04T00:32:26.070Z,62.70
2018-06-04T00:34:54.914Z,60.50
2018-06-04T00:37:23.754Z,65.03
2018-06-04T00:39:52.571Z,63.43
2018-06-04T00:42:20.976Z,56.33
2018-06-04T00:44:49.785Z,59.77
2018-06-04T00:47:18.559Z,64.30
2018-06-04T00:49:47.557Z,58.40
2018-06-04T00:52:16.419Z,64.93
2018-06-04T00:54:45.269Z,65.33
2018-06-04T00:57:14.095Z,62.73
2018-06-04T00:59:42.879Z,61.47
2018-06-04T01:02:11.712Z,64.93
2018-06-04T01:04:40.516Z,59.13
2018-06-04T01:07:09.343Z,60.77
2018-06-04T01:09:38.160Z,62.80
2018-06-04T01:12:06.979Z,61.27
2018-06-04T01:14:35.842Z,64.23
2018-06-04T01:17:04.735Z,61.27
2018-06-04T01:19:33.529Z,66.70
2018-06-04T01:22:02.779Z,64.27
2018-06-04T01:24:31.531Z,69.87
2018-06-04T01:27:00.350Z,65.13
2018-06-04T01:29:29.140Z,70.40
2018-06-04T01:31:57.976Z,66.77
2018-06-04T01:34:27.337Z,69.43
2018-06-04T01:36:56.132Z,68.27
2018-06-04T01:39:25.652Z,81.00
2018-06-04T01:41:54.412Z,76.83
2018-06-04T01:44:23.292Z,72.63
2018-06-04T01:46:52.140Z,74.00
2018-06-04T01:49:20.935Z,77.00
2018-06-04T01:51:49.701Z,72.17
2018-06-04T01:54:18.529Z,82.73
2018-06-04T01:56:47.352Z,80.80
2018-06-04T01:59:16.095Z,75.80
2018-06-04T02:01:44.970Z,71.77
2018-06-04T02:04:13.809Z,74.43
2018-06-04T02:06:43.617Z,75.20
2018-06-04T02:09:12.450Z,81.50
2018-06-04T02:11:41.238Z,74.43
2018-06-04T02:14:10.060Z,81.50
2018-06-04T02:16:38.855Z,76.10
2018-06-04T02:19:07.255Z,86.30
2018-06-04T02:21:36.046Z,83.57
2018-06-04T02:24:04.849Z,92.67
2018-06-04T02:26:33.649Z,94.83
2018-06-04T02:29:02.663Z,96.97
2018-06-04T02:31:31.565Z,97.37
2018-06-04T02:34:00.407Z,104.33
2018-06-04T02:36:29.330Z,100.97
2018-06-04T02:38:58.132Z,98.53
2018-06-04T02:41:26.922Z,115.20
2018-06-04T02:43:55.736Z,112.40
2018-06-04T02:46:24.519Z,111.77
2018-06-04T02:48:53.489Z,105.57
2018-06-04T02:51:22.282Z,113.17
2018-06-04T02:53:51.104Z,118.53
2018-06-04T02:56:19.904Z,115.50
2018-06-04T02:58:48.674Z,117.93
2018-06-04T03:01:17.496Z,127.40
2018-06-04T03:03:46.324Z,123.80
2018-06-04T03:06:15.116Z,120.40
2018-06-04T03:08:43.896Z,107.40
2018-06-04T03:11:12.716Z,122.47
2018-06-04T03:13:41.732Z,123.37
2018-06-04T03:16:11.559Z,117.87
2018-06-04T03:18:40.418Z,116.07
2018-06-04T03:21:09.177Z,116.73
2018-06-04T03:23:37.967Z,113.33
2018-06-04T03:26:06.752Z,121.60
2018-06-04T03:28:36.254Z,116.07
2018-06-04T03:31:05.067Z,112.23
2018-06-04T03:33:33.865Z,111.37
2018-06-04T03:36:02.683Z,114.63
2018-06-04T03:38:31.544Z,114.70
2018-06-04T03:41:00.384Z,112.80
2018-06-04T03:43:30.027Z,118.07
2018-06-04T03:45:58.858Z,120.93
2018-06-04T03:48:27.652Z,108.37
2018-06-04T03:50:56.428Z,100.10
2018-06-04T03:53:25.204Z,105.50
2018-06-04T03:55:53.989Z,101.13
2018-06-04T03:58:22.812Z,109.33
2018-06-04T04:00:51.737Z,106.77
2018-06-04T04:03:20.588Z,101.00
2018-06-04T04:05:49.398Z,104.53
2018-06-04T04:08:18.270Z,107.47
2018-06-04T04:10:47.114Z,109.67
2018-06-04T04:13:15.944Z,109.43
2018-06-04T04:15:44.780Z,102.83
2018-06-04T04:18:13.647Z,107.97
2018-06-04T04:20:42.432Z,109.63
2018-06-04T04:23:11.222Z,111.47
2018-06-04T04:25:40.415Z,104.90
2018-06-04T04:28:09.251Z,102.53
2018-06-04T04:30:38.020Z,98.20
2018-06-04T04:33:06.918Z,108.07
2018-06-04T04:35:36.475Z,105.43
2018-06-04T04:38:05.382Z,106.03
2018-06-04T04:40:34.213Z,105.50
2018-06-04T04:43:03.088Z,113.57
2018-06-04T04:45:31.938Z,98.83
2018-06-04T04:48:01.432Z,103.73
2018-06-04T04:50:30.222Z,100.17
2018-06-04T04:52:59.021Z,95.23
2018-06-04T04:55:27.874Z,95.57
2018-06-04T04:57:56.700Z,88.67
2018-06-04T05:00:25.529Z,85.87
2018-06-04T05:02:54.326Z,88.27
2018-06-04T05:05:23.203Z,83.07
2018-06-04T05:07:51.941Z,81.53
2018-06-04T05:10:20.731Z,86.13
2018-06-04T05:12:49.577Z,82.20
2018-06-04T05:15:18.448Z,89.40
2018-06-04T05:17:47.572Z,86.80
2018-06-04T05:20:16.435Z,89.47
2018-06-04T05:22:45.269Z,79.97
2018-06-04T05:25:14.074Z,77.40
2018-06-04T05:27:42.899Z,95.23
2018-06-04T05:30:11.717Z,83.80
2018-06-04T05:32:40.573Z,82.37
2018-06-04T05:35:09.322Z,91.57
2018-06-04T05:37:38.132Z,85.20
2018-06-04T05:40:06.992Z,93.13
2018-06-04T05:42:35.868Z,99.43
2018-06-04T05:45:04.795Z,94.90
2018-06-04T05:47:33.585Z,85.87
2018-06-04T05:50:02.364Z,86.57
2018-06-04T05:52:31.214Z,78.97
2018-06-04T05:55:00.044Z,81.50
2018-06-04T05:57:28.910Z,86.73
2018-06-04T05:59:57.717Z,80.73
2018-06-04T06:02:26.177Z,76.87
2018-06-04T06:04:54.991Z,72.90
2018-06-04T06:07:23.810Z,75.90
2018-06-04T06:09:52.639Z,68.60
2018-06-04T06:12:21.570Z,74.80
2018-06-04T06:14:50.434Z,78.90
2018-06-04T06:17:19.315Z,78.87
2018-06-04T06:19:48.250Z,72.37
2018-06-04T06:22:17.036Z,74.67
2018-06-04T06:24:45.886Z,70.73
2018-06-04T06:27:14.709Z,61.97
2018-06-04T06:29:43.705Z,60.50
2018-06-04T06:32:12.493Z,66.00
2018-06-04T06:34:41.251Z,61.43
2018-06-04T06:37:10.077Z,68.40
2018-06-04T06:39:38.893Z,58.70
2018-06-04T06:42:07.791Z,56.37
2018-06-04T06:44:36.653Z,58.23
2018-06-04T06:47:05.510Z,58.73
2018-06-04T06:49:34.416Z,56.50
2018-06-04T06:52:03.267Z,57.53
2018-06-04T06:54:32.098Z,60.73
2018-06-04T06:57:00.900Z,52.83
2018-06-04T06:59:29.711Z,52.93
2018-06-04T07:01:58.657Z,59.33
2018-06-04T07:04:27.462Z,55.77
2018-06-04T07:06:56.244Z,55.90
2018-06-04T07:09:25.194Z,59.07
2018-06-04T07:11:54.059Z,58.13
2018-06-04T07:14:22.563Z,63.30
2018-06-04T07:16:51.362Z,58.57
2018-06-04T07:19:20.174Z,54.27
2018-06-04T07:21:49.041Z,51.77
2018-06-04T07:24:17.849Z,57.53
2018-06-04T07:26:47.090Z,57.40
2018-06-04T07:29:15.865Z,60.10
2018-06-04T07:31:44.812Z,59.83
2018-06-04T07:34:14.466Z,60.33
2018-06-04T07:36:43.471Z,58.63
2018-06-04T07:39:12.366Z,57.43
2018-06-04T07:41:41.262Z,55.17
2018-06-04T07:44:10.093Z,61.23
2018-06-04T07:46:38.887Z,57.53
2018-06-04T07:49:07.719Z,58.93
2018-06-04T07:51:36.553Z,57.00
2018-06-04T07:54:05.370Z,58.27
2018-06-04T07:56:34.230Z,57.63
2018-06-04T07:59:03.056Z,56.17
2018-06-04T08:01:31.907Z,54.20
2018-06-04T08:04:00.668Z,52.30
2018-06-04T08:06:29.502Z,55.80
2018-06-04T08:08:58.432Z,48.77
2018-06-04T08:11:26.871Z,56.63
2018-06-04T08:13:55.745Z,50.50
2018-06-04T08:16:24.574Z,50.80
2018-06-04T08:18:53.421Z,51.87
2018-06-04T08:21:22.249Z,51.10
2018-06-04T08:23:51.123Z,53.53
2018-06-04T08:26:20.182Z,53.70
2018-06-04T08:28:49.101Z,51.70
2018-06-04T08:31:17.984Z,51.77
2018-06-04T08:33:46.832Z,51.03
2018-06-04T08:36:15.698Z,54.40
2018-06-04T08:38:44.584Z,54.00
2018-06-04T08:41:13.368Z,49.87
2018-06-04T08:43:42.244Z,49.67
2018-06-04T08:46:11.090Z,51.37
2018-06-04T08:48:39.931Z,50.07
2018-06-04T08:51:08.797Z,45.00
2018-06-04T08:53:37.239Z,46.70
2018-06-04T08:56:06.067Z,49.30
2018-06-04T08:58:35.055Z,45.57
2018-06-04T09:01:03.913Z,47.07
2018-06-04T09:03:32.761Z,48.00
2018-06-04T09:06:01.633Z,47.30
2018-06-04T09:08:30.407Z,40.33
2018-06-04T09:10:59.269Z,46.33
2018-06-04T09:13:28.119Z,45.20
2018-06-04T09:15:56.918Z,46.07
2018-06-04T09:18:25.811Z,41.03
2018-06-04T09:20:54.682Z,41.83
2018-06-04T09:23:23.546Z,41.83
2018-06-04T09:25:52.412Z,39.43
2018-06-04T09:28:21.186Z,40.10
2018-06-04T09:30:50.021Z,37.40
2018-06-04T09:33:18.839Z,40.33
2018-06-04T09:35:47.685Z,39.20
2018-06-04T09:38:16.474Z,39.20
2018-06-04T09:40:46.079Z,38.77
2018-06-04T09:43:14.914Z,37.67
2018-06-04T09:45:43.811Z,38.40
2018-06-04T09:48:12.654Z,38.63
2018-06-04T09:50:41.469Z,38.47
2018-06-04T09:53:10.324Z,38.77
2018-06-04T09:55:39.162Z,40.93
2018-06-04T09:58:08.028Z,38.80
2018-06-04T10:00:39.276Z,40.67
2018-06-04T10:03:08.082Z,37.43
2018-06-04T10:05:36.924Z,40.50
2018-06-04T10:08:05.716Z,40.10
2018-06-04T10:10:34.528Z,36.37
2018-06-04T10:13:03.357Z,35.23
2018-06-04T10:15:32.179Z,33.27
2018-06-04T10:18:01.024Z,34.53
2018-06-04T10:20:29.832Z,34.13
2018-06-04T10:22:58.711Z,33.43
2018-06-04T10:25:27.544Z,33.80
2018-06-04T10:27:56.345Z,32.13
2018-06-04T10:30:25.205Z,32.90
2018-06-04T10:32:54.004Z,35.37
2018-06-04T10:35:22.811Z,32.43
2018-06-04T10:37:51.663Z,35.90
2018-06-04T10:40:20.499Z,36.00
2018-06-04T10:42:49.307Z,38.70
2018-06-04T10:45:18.183Z,35.53
2018-06-04T10:47:47.104Z,34.00
2018-06-04T10:50:15.949Z,39.33
2018-06-04T10:52:44.825Z,36.80
2018-06-04T10:55:13.624Z,42.13
2018-06-04T10:57:42.448Z,39.67
2018-06-04T11:00:10.822Z,38.30
2018-06-04T11:02:39.601Z,38.53
2018-06-04T11:05:08.416Z,36.77
2018-06-04T11:07:37.321Z,38.70
2018-06-04T11:10:06.194Z,37.73
2018-06-04T11:12:35.654Z,37.87
2018-06-04T11:15:04.612Z,37.57
2018-06-04T11:17:33.406Z,35.17
2018-06-04T11:20:02.307Z,34.23
2018-06-04T11:22:31.129Z,36.20
2018-06-04T11:24:59.956Z,36.87
2018-06-04T11:27:28.807Z,37.50
2018-06-04T11:29:57.618Z,37.13
2018-06-04T11:32:26.454Z,40.40
2018-06-04T11:34:54.863Z,39.33
2018-06-04T11:37:23.699Z,34.17
2018-06-04T11:39:52.482Z,38.73
2018-06-04T11:42:21.311Z,39.60
2018-06-04T11:44:50.167Z,36.10
2018-06-04T11:47:19.630Z,34.23
2018-06-04T11:49:48.581Z,31.93
2018-06-04T11:52:17.412Z,36.73
2018-06-04T11:54:46.781Z,34.63
2018-06-04T11:57:15.555Z,37.50
2018-06-04T11:59:44.468Z,37.97
2018-06-04T12:02:13.304Z,33.63
2018-06-04T12:04:42.081Z,37.03
2018-06-04T12:07:10.930Z,35.20
2018-06-04T12:09:39.744Z,33.47
2018-06-04T12:12:08.560Z,34.73
2018-06-04T12:14:37.359Z,38.67
2018-06-04T12:17:06.310Z,41.87
2018-06-04T12:19:35.121Z,40.60
2018-06-04T12:22:03.982Z,33.23
2018-06-04T12:24:32.797Z,32.53
2018-06-04T12:27:01.646Z,31.93
2018-06-04T12:29:30.625Z,32.50
2018-06-04T12:31:59.490Z,31.63
2018-06-04T12:34:28.424Z,34.17
2018-06-04T12:36:57.230Z,35.20
2018-06-04T12:39:26.178Z,30.20
2018-06-04T12:41:55.049Z,27.50
2018-06-04T12:44:23.950Z,28.53
2018-06-04T12:46:52.857Z,29.60
2018-06-04T12:49:21.722Z,26.80
2018-06-04T12:51:50.569Z,27.37
2018-06-04T12:54:19.344Z,27.00
2018-06-04T12:56:48.199Z,27.13
2018-06-04T12:59:17.033Z,29.77
2018-06-04T13:01:45.868Z,31.13
2018-06-04T13:04:14.712Z,30.57
2018-06-04T13:06:43.565Z,27.53
2018-06-04T13:09:12.361Z,26.37
2018-06-04T13:11:41.278Z,29.57
2018-06-04T13:14:10.099Z,25.93
2018-06-04T13:16:38.942Z,26.03
2018-06-04T13:19:10.136Z,31.63
2018-06-04T13:21:39.025Z,33.37
2018-06-04T13:24:07.806Z,27.87
2018-06-04T13:26:36.631Z,30.53
2018-06-04T13:29:05.439Z,28.27
2018-06-04T13:31:34.310Z,28.13
2018-06-04T13:34:03.245Z,26.27
2018-06-04T13:36:32.129Z,33.23
2018-06-04T13:39:00.874Z,29.13
2018-06-04T13:41:29.636Z,25.63
2018-06-04T13:43:58.508Z,25.67
2018-06-04T13:46:27.378Z,21.30
2018-06-04T13:48:56.197Z,22.50
2018-06-04T13:51:25.058Z,21.10
2018-06-04T13:53:53.906Z,22.27
2018-06-04T13:56:22.778Z,20.57
2018-06-04T13:58:51.634Z,24.17
2018-06-04T14:01:20.557Z,23.40
2018-06-04T14:03:49.360Z,23.27
2018-06-04T14:06:18.168Z,21.70
2018-06-04T14:08:47.728Z,22.13
2018-06-04T14:11:16.638Z,22.30
2018-06-04T14:13:45.425Z,22.63
2018-06-04T14:16:14.285Z,20.10
2018-06-04T14:18:43.149Z,21.67
2018-06-04T14:21:13.001Z,20.27
2018-06-04T14:23:41.859Z,19.70
2018-06-04T14:26:10.680Z,21.37
2018-06-04T14:28:39.453Z,21.57
2018-06-04T14:31:08.250Z,18.63
2018-06-04T14:33:36.992Z,18.80
2018-06-04T14:36:05.894Z,18.73
2018-06-04T14:38:34.720Z,17.10
2018-06-04T14:41:03.586Z,14.63
2018-06-04T14:43:32.421Z,14.93
2018-06-04T14:46:01.226Z,15.67
2018-06-04T14:48:30.091Z,19.10
2018-06-04T14:50:58.922Z,17.67
2018-06-04T14:53:27.746Z,17.27
2018-06-04T14:55:56.609Z,14.17
2018-06-04T14:58:26.103Z,17.30
2018-06-04T15:00:54.895Z,15.43
2018-06-04T15:03:23.727Z,17.23
2018-06-04T15:05:52.618Z,15.33
2018-06-04T15:08:21.425Z,20.63
2018-06-04T15:10:50.234Z,19.33
2018-06-04T15:13:19.007Z,19.50
2018-06-04T15:15:48.010Z,16.60
2018-06-04T15:18:16.766Z,14.83
2018-06-04T15:20:46.600Z,17.17
2018-06-04T15:23:16.800Z,14.03
2018-06-04T15:25:45.626Z,14.23
2018-06-04T15:28:14.405Z,14.97
2018-06-04T15:30:43.194Z,11.83
2018-06-04T15:33:12.010Z,12.83
2018-06-04T15:35:40.849Z,16.37
2018-06-04T15:38:09.637Z,17.03
2018-06-04T15:40:38.447Z,15.60
2018-06-04T15:43:07.287Z,17.03
2018-06-04T15:45:36.105Z,16.43
2018-06-04T15:48:04.927Z,14.37
2018-06-04T15:50:33.867Z,16.70
2018-06-04T15:53:02.651Z,14.40
2018-06-04T15:55:31.429Z,14.43
2018-06-04T15:58:00.301Z,14.67
2018-06-04T16:00:29.096Z,12.03
2018-06-04T16:02:57.862Z,14.03
2018-06-04T16:05:26.617Z,12.57
2018-06-04T16:07:55.481Z,12.97
2018-06-04T16:10:24.285Z,11.53
2018-06-04T16:12:53.178Z,11.77
2018-06-04T16:15:21.992Z,12.27
2018-06-04T16:17:50.805Z,12.57
2018-06-04T16:20:19.625Z,12.03
2018-06-04T16:22:48.436Z,10.60
2018-06-04T16:25:17.208Z,12.20
2018-06-04T16:27:46.045Z,11.50
2018-06-04T16:30:14.940Z,11.27
2018-06-04T16:32:43.307Z,9.37
2018-06-04T16:35:11.707Z,12.77
2018-06-04T16:37:40.458Z,11.50
2018-06-04T16:40:09.273Z,11.00
2018-06-04T16:42:38.410Z,10.80
2018-06-04T16:45:07.251Z,12.27
2018-06-04T16:47:36.075Z,9.97
2018-06-04T16:50:05.050Z,10.50
2018-06-04T16:52:33.820Z,11.70
2018-06-04T16:55:02.646Z,11.77
2018-06-04T16:57:31.477Z,10.93
2018-06-04T17:00:00.334Z,12.63
2018-06-04T17:02:29.106Z,11.27
2018-06-04T17:04:57.900Z,10.57
2018-06-04T17:07:26.740Z,10.10
2018-06-04T17:09:55.524Z,12.20
2018-06-04T17:12:24.406Z,11.30
2018-06-04T17:14:53.213Z,9.93
2018-06-04T17:17:22.103Z,10.53
2018-06-04T17:19:50.903Z,9.87
2018-06-04T17:22:19.703Z,13.03
2018-06-04T17:24:48.446Z,11.97
2018-06-04T17:27:17.183Z,11.73
2018-06-04T17:29:45.971Z,11.20
2018-06-04T17:32:14.761Z,12.03
2018-06-04T17:34:43.117Z,11.70
2018-06-04T17:37:11.860Z,11.27
2018-06-04T17:39:40.691Z,13.50
2018-06-04T17:42:09.453Z,13.53
2018-06-04T17:44:38.243Z,8.83
2018-06-04T17:47:07.013Z,10.43
2018-06-04T17:49:35.774Z,12.23
2018-06-04T17:52:04.568Z,12.53
2018-06-04T17:54:33.413Z,11.63
2018-06-04T17:57:02.253Z,11.90
2018-06-04T17:59:31.040Z,13.50
2018-06-04T18:01:59.833Z,12.33
2018-06-04T18:04:28.610Z,12.07
2018-06-04T18:06:57.408Z,13.23
2018-06-04T18:09:26.226Z,14.40
2018-06-04T18:11:55.265Z,13.53
2018-06-04T18:14:24.055Z,13.77
2018-06-04T18:16:52.845Z,14.87
2018-06-04T18:19:21.705Z,14.30
2018-06-04T18:21:50.548Z,14.87
2018-06-04T18:24:19.394Z,14.03
2018-06-04T18:26:48.184Z,15.03
2018-06-04T18:29:16.919Z,14.27
2018-06-04T18:31:45.764Z,16.10
2018-06-04T18:34:14.560Z,19.90
2018-06-04T18:36:43.332Z,18.83
2018-06-04T18:39:12.085Z,17.00
2018-06-04T18:41:40.879Z,16.17
2018-06-04T18:44:09.694Z,18.30
2018-06-04T18:46:38.495Z,18.43
2018-06-04T18:49:07.304Z,18.63
2018-06-04T18:51:36.112Z,19.13
2018-06-04T18:54:04.952Z,15.97
2018-06-04T18:56:33.737Z,18.20
2018-06-04T18:59:02.527Z,19.53
2018-06-04T19:01:31.347Z,19.00
2018-06-04T19:04:00.167Z,19.20
2018-06-04T19:06:28.982Z,18.10
2018-06-04T19:08:57.795Z,16.70
2018-06-04T19:11:26.606Z,18.33
2018-06-04T19:13:55.468Z,20.53
2018-06-04T19:16:24.254Z,20.70
2018-06-04T19:18:53.072Z,19.13
2018-06-04T19:21:22.595Z,20.83
2018-06-04T19:23:51.450Z,19.33
2018-06-04T19:26:20.257Z,20.83
2018-06-04T19:28:49.093Z,23.07
2018-06-04T19:31:17.930Z,20.10
2018-06-04T19:33:46.875Z,21.83
2018-06-04T19:36:15.755Z,21.60
2018-06-04T19:38:44.750Z,20.80
2018-06-04T19:41:13.582Z,22.73
2018-06-04T19:43:42.367Z,22.03
2018-06-04T19:46:11.192Z,20.83
2018-06-04T19:48:39.590Z,22.37
2018-06-04T19:51:08.392Z,21.17
2018-06-04T19:53:37.187Z,22.13
2018-06-04T19:56:06.091Z,22.43
2018-06-04T19:58:34.964Z,18.53
2018-06-04T20:01:03.755Z,22.23
2018-06-04T20:03:32.697Z,20.93
2018-06-04T20:06:01.481Z,20.23
2018-06-04T20:08:30.253Z,22.17
2018-06-04T20:10:59.093Z,22.00
2018-06-04T20:13:27.981Z,21.27
2018-06-04T20:15:56.778Z,21.57
2018-06-04T20:18:25.195Z,21.77
2018-06-04T20:20:53.980Z,20.27
2018-06-04T20:23:22.787Z,21.17
2018-06-04T20:25:51.684Z,20.03
2018-06-04T20:28:20.994Z,20.10
2018-06-04T20:30:49.838Z,18.50
2018-06-04T20:33:18.702Z,20.27
2018-06-04T20:35:47.521Z,20.83
2018-06-04T20:38:16.382Z,20.33
2018-06-04T20:40:45.258Z,22.87
2018-06-04T20:43:14.170Z,20.23
2018-06-04T20:45:42.980Z,20.80
2018-06-04T20:48:11.789Z,21.80
2018-06-04T20:50:40.673Z,19.13
2018-06-04T20:53:09.532Z,20.80
2018-06-04T20:55:38.319Z,21.17
2018-06-04T20:58:07.162Z,20.60
2018-06-04T21:00:36.723Z,22.27
2018-06-04T21:03:05.506Z,21.60
2018-06-04T21:05:34.414Z,20.43
2018-06-04T21:08:03.174Z,22.57
2018-06-04T21:10:31.935Z,20.93
2018-06-04T21:13:00.758Z,19.80
2018-06-04T21:15:29.582Z,19.20
2018-06-04T21:17:58.410Z,19.23
2018-06-04T21:20:27.186Z,19.47
2018-06-04T21:22:55.963Z,19.77
2018-06-04T21:25:24.771Z,20.07
2018-06-04T21:27:53.559Z,20.87
2018-06-04T21:30:22.333Z,19.70
2018-06-04T21:32:51.185Z,21.37
2018-06-04T21:35:19.899Z,20.80
2018-06-04T21:37:48.692Z,19.43
2018-06-04T21:40:17.969Z,18.97
2018-06-04T21:42:46.772Z,21.50
2018-06-04T21:45:15.546Z,20.73
2018-06-04T21:47:44.304Z,22.13
2018-06-04T21:50:13.113Z,18.90
2018-06-04T21:52:41.885Z,20.37
2018-06-04T21:55:10.731Z,21.90
2018-06-04T21:57:39.545Z,19.93
2018-06-04T22:00:09.896Z,19.73
2018-06-04T22:02:39.142Z,23.63
2018-06-04T22:05:07.992Z,20.63
2018-06-04T22:07:36.826Z,21.47
2018-06-04T22:10:06.185Z,19.87
2018-06-04T22:12:34.974Z,20.23
2018-06-04T22:15:03.949Z,20.60
2018-06-04T22:17:32.802Z,18.57
2018-06-04T22:20:01.591Z,19.47
2018-06-04T22:22:30.380Z,20.97
2018-06-04T22:24:59.181Z,20.93
2018-06-04T22:27:27.959Z,21.27
2018-06-04T22:29:56.696Z,22.13
2018-06-04T22:32:25.454Z,21.13
2018-06-04T22:34:54.342Z,22.40
2018-06-04T22:37:23.274Z,21.03
2018-06-04T22:39:52.089Z,21.73
2018-06-04T22:42:20.855Z,22.93
2018-06-04T22:44:49.648Z,21.23
2018-06-04T22:47:18.447Z,19.67
2018-06-04T22:49:47.252Z,19.70
2018-06-04T22:52:16.072Z,20.97
2018-06-04T22:54:44.883Z,22.10
2018-06-04T22:57:13.676Z,20.27
2018-06-04T22:59:42.461Z,21.23
2018-06-04T23:02:11.208Z,21.60
2018-06-04T23:04:40.019Z,20.83
2018-06-04T23:07:08.801Z,23.00
2018-06-04T23:09:37.562Z,21.50
2018-06-04T23:12:06.393Z,22.73
2018-06-04T23:14:35.147Z,22.43
2018-06-04T23:17:03.980Z,21.80
2018-06-04T23:19:32.890Z,19.07
2018-06-04T23:22:01.666Z,22.03
2018-06-04T23:24:30.461Z,20.80
2018-06-04T23:26:59.254Z,19.57
2018-06-04T23:29:28.070Z,21.00
2018-06-04T23:31:56.936Z,20.67
2018-06-04T23:34:25.794Z,21.00
2018-06-04T23:36:54.563Z,20.43
2018-06-04T23:39:23.442Z,22.37
2018-06-04T23:41:52.283Z,21.77
2018-06-04T23:44:21.019Z,24.07
2018-06-04T23:46:49.825Z,21.40
2018-06-04T23:49:18.650Z,20.87
2018-06-04T23:51:47.388Z,19.70
2018-06-04T23:54:16.970Z,20.80
2018-06-04T23:56:45.795Z,20.57
2018-06-04T23:59:14.589Z,20.43
